Terminal Aerodrome Forecast
Issued by NWS Tampa Bay Area, FL

Home | Current Version | Previous Version | Text Only | Print | Product List | Glossary On
Versions: 1 2 3 4 5 6 7 8 9 10 11 12 13 14
171
FTUS42 KTBW 240520
TAFFMY
TAF
KFMY 240520Z 2406/2506 29006KT P6SM VCSH SCT010 BKN120
      TEMPO 2406/2410 4SM -SHRA BR BKN010
     FM241000 34004KT 5SM BR OVC010
     FM241500 35006KT P6SM BKN012
     FM241700 33007KT P6SM SCT020
     FM242300 VRB03KT P6SM SKC=

USA.gov is the U.S. government's official web portal to all federal, state and local government web resources and services.